sensor_id;sensor_type;location;lat;lon;timestamp;P1;durP1;ratioP1;P2;durP2;ratioP2
5549;SDS011;2798;42.716;23.256;2023-05-29T00:01:09;15.30;;;6.47;;
5549;SDS011;2798;42.716;23.256;2023-05-29T00:03:35;13.80;;;6.50;;
5549;SDS011;2798;42.716;23.256;2023-05-29T00:06:03;15.33;;;6.07;;
5549;SDS011;2798;42.716;23.256;2023-05-29T00:08:31;20.23;;;6.67;;
5549;SDS011;2798;42.716;23.256;2023-05-29T00:10:56;12.77;;;5.87;;
5549;SDS011;2798;42.716;23.256;2023-05-29T00:13:22;15.20;;;6.83;;
5549;SDS011;2798;42.716;23.256;2023-05-29T00:15:48;13.53;;;6.47;;
5549;SDS011;2798;42.716;23.256;2023-05-29T00:18:13;14.40;;;6.47;;
5549;SDS011;2798;42.716;23.256;2023-05-29T00:20:38;19.00;;;6.60;;
5549;SDS011;2798;42.716;23.256;2023-05-29T00:23:04;15.07;;;6.30;;
5549;SDS011;2798;42.716;23.256;2023-05-29T00:25:31;15.10;;;6.87;;
5549;SDS011;2798;42.716;23.256;2023-05-29T00:27:57;15.13;;;7.33;;
5549;SDS011;2798;42.716;23.256;2023-05-29T00:30:22;13.60;;;6.50;;
5549;SDS011;2798;42.716;23.256;2023-05-29T00:32:48;12.70;;;6.10;;
5549;SDS011;2798;42.716;23.256;2023-05-29T00:35:13;14.00;;;6.33;;
5549;SDS011;2798;42.716;23.256;2023-05-29T00:37:39;19.30;;;6.90;;
5549;SDS011;2798;42.716;23.256;2023-05-29T00:40:05;15.93;;;6.93;;
5549;SDS011;2798;42.716;23.256;2023-05-29T00:42:31;16.70;;;6.63;;
5549;SDS011;2798;42.716;23.256;2023-05-29T00:44:57;16.63;;;7.03;;
5549;SDS011;2798;42.716;23.256;2023-05-29T00:47:22;16.10;;;6.50;;
5549;SDS011;2798;42.716;23.256;2023-05-29T00:49:47;17.10;;;6.40;;
5549;SDS011;2798;42.716;23.256;2023-05-29T00:52:16;17.40;;;7.03;;
5549;SDS011;2798;42.716;23.256;2023-05-29T00:54:42;14.30;;;6.03;;
5549;SDS011;2798;42.716;23.256;2023-05-29T00:57:09;15.40;;;6.70;;
5549;SDS011;2798;42.716;23.256;2023-05-29T00:59:37;13.97;;;6.30;;
5549;SDS011;2798;42.716;23.256;2023-05-29T01:02:03;14.80;;;6.40;;
5549;SDS011;2798;42.716;23.256;2023-05-29T01:04:28;20.67;;;7.43;;
5549;SDS011;2798;42.716;23.256;2023-05-29T01:06:54;19.10;;;7.90;;
5549;SDS011;2798;42.716;23.256;2023-05-29T01:09:21;20.83;;;6.70;;
5549;SDS011;2798;42.716;23.256;2023-05-29T01:11:53;16.90;;;6.73;;
5549;SDS011;2798;42.716;23.256;2023-05-29T01:17:06;18.90;;;7.20;;
5549;SDS011;2798;42.716;23.256;2023-05-29T01:28:27;18.80;;;7.30;;
5549;SDS011;2798;42.716;23.256;2023-05-29T01:30:58;19.43;;;7.50;;
5549;SDS011;2798;42.716;23.256;2023-05-29T01:33:27;17.17;;;6.97;;
5549;SDS011;2798;42.716;23.256;2023-05-29T01:35:52;15.50;;;6.30;;
5549;SDS011;2798;42.716;23.256;2023-05-29T01:38:18;22.83;;;7.47;;
5549;SDS011;2798;42.716;23.256;2023-05-29T01:40:44;18.47;;;7.47;;
5549;SDS011;2798;42.716;23.256;2023-05-29T01:43:10;18.80;;;6.80;;
5549;SDS011;2798;42.716;23.256;2023-05-29T01:45:38;20.83;;;7.40;;
5549;SDS011;2798;42.716;23.256;2023-05-29T01:48:04;21.30;;;7.37;;
5549;SDS011;2798;42.716;23.256;2023-05-29T01:50:30;23.73;;;7.67;;
5549;SDS011;2798;42.716;23.256;2023-05-29T01:52:55;26.23;;;7.03;;
5549;SDS011;2798;42.716;23.256;2023-05-29T01:55:21;20.13;;;7.60;;
5549;SDS011;2798;42.716;23.256;2023-05-29T01:57:46;19.77;;;7.20;;
5549;SDS011;2798;42.716;23.256;2023-05-29T02:00:12;22.17;;;7.60;;
5549;SDS011;2798;42.716;23.256;2023-05-29T02:02:41;18.37;;;7.00;;
5549;SDS011;2798;42.716;23.256;2023-05-29T02:05:07;20.33;;;8.20;;
5549;SDS011;2798;42.716;23.256;2023-05-29T02:07:34;28.43;;;8.43;;
5549;SDS011;2798;42.716;23.256;2023-05-29T02:10:06;24.27;;;7.67;;
5549;SDS011;2798;42.716;23.256;2023-05-29T02:12:32;24.73;;;7.77;;
5549;SDS011;2798;42.716;23.256;2023-05-29T02:14:57;26.20;;;7.70;;
5549;SDS011;2798;42.716;23.256;2023-05-29T02:17:23;32.40;;;9.40;;
5549;SDS011;2798;42.716;23.256;2023-05-29T02:19:49;22.63;;;7.40;;
5549;SDS011;2798;42.716;23.256;2023-05-29T02:22:15;25.40;;;7.37;;
5549;SDS011;2798;42.716;23.256;2023-05-29T02:24:42;33.23;;;8.60;;
5549;SDS011;2798;42.716;23.256;2023-05-29T02:27:07;27.47;;;7.63;;
5549;SDS011;2798;42.716;23.256;2023-05-29T02:29:32;19.67;;;7.83;;
5549;SDS011;2798;42.716;23.256;2023-05-29T02:31:58;21.83;;;7.60;;
5549;SDS011;2798;42.716;23.256;2023-05-29T02:34:23;20.93;;;7.40;;
5549;SDS011;2798;42.716;23.256;2023-05-29T02:36:49;23.30;;;8.63;;
5549;SDS011;2798;42.716;23.256;2023-05-29T02:39:17;26.37;;;8.77;;
5549;SDS011;2798;42.716;23.256;2023-05-29T02:41:42;23.00;;;7.80;;
5549;SDS011;2798;42.716;23.256;2023-05-29T02:44:08;19.10;;;7.20;;
5549;SDS011;2798;42.716;23.256;2023-05-29T02:46:33;32.57;;;7.80;;
5549;SDS011;2798;42.716;23.256;2023-05-29T02:48:58;33.23;;;8.63;;
5549;SDS011;2798;42.716;23.256;2023-05-29T02:51:24;19.77;;;7.10;;
5549;SDS011;2798;42.716;23.256;2023-05-29T02:53:49;22.07;;;7.50;;
5549;SDS011;2798;42.716;23.256;2023-05-29T02:56:15;23.23;;;7.63;;
5549;SDS011;2798;42.716;23.256;2023-05-29T02:58:41;31.23;;;8.57;;
5549;SDS011;2798;42.716;23.256;2023-05-29T03:01:07;25.53;;;7.83;;
5549;SDS011;2798;42.716;23.256;2023-05-29T03:03:32;23.53;;;8.47;;
5549;SDS011;2798;42.716;23.256;2023-05-29T03:05:58;21.90;;;7.60;;
5549;SDS011;2798;42.716;23.256;2023-05-29T03:08:24;22.90;;;8.23;;
5549;SDS011;2798;42.716;23.256;2023-05-29T03:10:50;19.30;;;7.77;;
5549;SDS011;2798;42.716;23.256;2023-05-29T03:13:17;20.27;;;8.20;;
5549;SDS011;2798;42.716;23.256;2023-05-29T03:15:43;23.13;;;7.27;;
5549;SDS011;2798;42.716;23.256;2023-05-29T03:18:09;19.53;;;7.70;;
5549;SDS011;2798;42.716;23.256;2023-05-29T03:20:34;21.53;;;7.80;;
5549;SDS011;2798;42.716;23.256;2023-05-29T03:23:00;20.37;;;7.50;;
5549;SDS011;2798;42.716;23.256;2023-05-29T03:25:26;25.23;;;8.20;;
5549;SDS011;2798;42.716;23.256;2023-05-29T03:27:51;22.60;;;8.93;;
5549;SDS011;2798;42.716;23.256;2023-05-29T03:30:17;19.73;;;8.00;;
5549;SDS011;2798;42.716;23.256;2023-05-29T03:32:44;23.63;;;8.13;;
5549;SDS011;2798;42.716;23.256;2023-05-29T03:35:10;28.67;;;8.10;;
5549;SDS011;2798;42.716;23.256;2023-05-29T03:37:35;18.70;;;7.93;;
5549;SDS011;2798;42.716;23.256;2023-05-29T03:40:01;22.90;;;7.70;;
5549;SDS011;2798;42.716;23.256;2023-05-29T03:42:26;23.53;;;9.10;;
5549;SDS011;2798;42.716;23.256;2023-05-29T03:44:51;24.80;;;8.10;;
5549;SDS011;2798;42.716;23.256;2023-05-29T03:47:17;25.40;;;7.87;;
5549;SDS011;2798;42.716;23.256;2023-05-29T03:49:42;22.90;;;8.77;;
5549;SDS011;2798;42.716;23.256;2023-05-29T03:52:08;24.83;;;9.33;;
5549;SDS011;2798;42.716;23.256;2023-05-29T03:54:33;28.07;;;9.17;;
5549;SDS011;2798;42.716;23.256;2023-05-29T03:56:58;24.50;;;8.87;;
5549;SDS011;2798;42.716;23.256;2023-05-29T03:59:24;25.00;;;10.00;;
5549;SDS011;2798;42.716;23.256;2023-05-29T04:01:49;18.53;;;7.73;;
5549;SDS011;2798;42.716;23.256;2023-05-29T04:04:15;19.43;;;8.50;;
5549;SDS011;2798;42.716;23.256;2023-05-29T04:06:40;25.13;;;9.20;;
5549;SDS011;2798;42.716;23.256;2023-05-29T04:09:06;28.27;;;9.50;;
5549;SDS011;2798;42.716;23.256;2023-05-29T04:11:32;26.70;;;8.87;;
5549;SDS011;2798;42.716;23.256;2023-05-29T04:13:59;26.50;;;8.77;;
5549;SDS011;2798;42.716;23.256;2023-05-29T04:16:25;27.70;;;9.13;;
5549;SDS011;2798;42.716;23.256;2023-05-29T04:18:51;23.23;;;8.60;;
5549;SDS011;2798;42.716;23.256;2023-05-29T04:21:16;20.97;;;7.80;;
5549;SDS011;2798;42.716;23.256;2023-05-29T04:23:41;19.40;;;8.00;;
5549;SDS011;2798;42.716;23.256;2023-05-29T04:26:07;21.60;;;8.10;;
5549;SDS011;2798;42.716;23.256;2023-05-29T04:28:32;23.57;;;8.70;;
5549;SDS011;2798;42.716;23.256;2023-05-29T04:30:58;21.73;;;8.57;;
5549;SDS011;2798;42.716;23.256;2023-05-29T04:33:23;20.87;;;8.40;;
5549;SDS011;2798;42.716;23.256;2023-05-29T04:35:51;20.33;;;8.30;;
5549;SDS011;2798;42.716;23.256;2023-05-29T04:38:17;21.03;;;9.30;;
5549;SDS011;2798;42.716;23.256;2023-05-29T04:40:44;27.67;;;9.73;;
5549;SDS011;2798;42.716;23.256;2023-05-29T04:43:09;25.37;;;9.00;;
5549;SDS011;2798;42.716;23.256;2023-05-29T04:45:35;25.30;;;9.63;;
5549;SDS011;2798;42.716;23.256;2023-05-29T04:48:02;21.20;;;8.70;;
5549;SDS011;2798;42.716;23.256;2023-05-29T04:50:28;35.67;;;10.90;;
5549;SDS011;2798;42.716;23.256;2023-05-29T04:52:56;35.93;;;9.80;;
5549;SDS011;2798;42.716;23.256;2023-05-29T04:55:22;22.10;;;7.97;;
5549;SDS011;2798;42.716;23.256;2023-05-29T04:57:48;19.83;;;7.30;;
5549;SDS011;2798;42.716;23.256;2023-05-29T05:00:14;19.13;;;7.70;;
5549;SDS011;2798;42.716;23.256;2023-05-29T05:02:43;21.63;;;7.60;;
5549;SDS011;2798;42.716;23.256;2023-05-29T05:05:09;21.83;;;8.73;;
5549;SDS011;2798;42.716;23.256;2023-05-29T05:07:36;23.30;;;8.93;;
5549;SDS011;2798;42.716;23.256;2023-05-29T05:10:02;21.80;;;9.07;;
5549;SDS011;2798;42.716;23.256;2023-05-29T05:12:28;21.17;;;8.00;;
5549;SDS011;2798;42.716;23.256;2023-05-29T05:14:54;18.90;;;8.63;;
5549;SDS011;2798;42.716;23.256;2023-05-29T05:17:20;24.70;;;9.10;;
5549;SDS011;2798;42.716;23.256;2023-05-29T05:19:46;20.87;;;8.57;;
5549;SDS011;2798;42.716;23.256;2023-05-29T05:22:13;21.80;;;8.90;;
5549;SDS011;2798;42.716;23.256;2023-05-29T05:24:39;22.00;;;8.10;;
5549;SDS011;2798;42.716;23.256;2023-05-29T05:27:04;31.53;;;8.73;;
5549;SDS011;2798;42.716;23.256;2023-05-29T05:29:30;29.07;;;8.93;;
5549;SDS011;2798;42.716;23.256;2023-05-29T05:31:55;24.93;;;8.57;;
5549;SDS011;2798;42.716;23.256;2023-05-29T05:34:21;21.83;;;9.10;;
5549;SDS011;2798;42.716;23.256;2023-05-29T05:36:47;22.00;;;9.50;;
5549;SDS011;2798;42.716;23.256;2023-05-29T05:39:12;28.40;;;8.60;;
5549;SDS011;2798;42.716;23.256;2023-05-29T05:41:37;21.03;;;8.67;;
5549;SDS011;2798;42.716;23.256;2023-05-29T05:44:03;30.50;;;10.10;;
5549;SDS011;2798;42.716;23.256;2023-05-29T05:46:28;28.23;;;9.10;;
5549;SDS011;2798;42.716;23.256;2023-05-29T05:48:54;22.07;;;9.10;;
5549;SDS011;2798;42.716;23.256;2023-05-29T05:51:23;17.93;;;7.83;;
5549;SDS011;2798;42.716;23.256;2023-05-29T05:53:49;26.43;;;7.43;;
5549;SDS011;2798;42.716;23.256;2023-05-29T05:56:14;17.17;;;7.37;;
5549;SDS011;2798;42.716;23.256;2023-05-29T05:58:39;19.63;;;7.40;;
5549;SDS011;2798;42.716;23.256;2023-05-29T06:01:06;25.93;;;7.63;;
5549;SDS011;2798;42.716;23.256;2023-05-29T06:03:33;22.43;;;8.80;;
5549;SDS011;2798;42.716;23.256;2023-05-29T06:05:59;16.23;;;7.10;;
5549;SDS011;2798;42.716;23.256;2023-05-29T06:08:25;20.50;;;8.30;;
5549;SDS011;2798;42.716;23.256;2023-05-29T06:10:50;18.13;;;7.60;;
5549;SDS011;2798;42.716;23.256;2023-05-29T06:13:15;17.53;;;6.90;;
5549;SDS011;2798;42.716;23.256;2023-05-29T06:15:42;18.80;;;7.20;;
5549;SDS011;2798;42.716;23.256;2023-05-29T06:18:08;14.27;;;7.07;;
5549;SDS011;2798;42.716;23.256;2023-05-29T06:20:33;16.70;;;7.00;;
5549;SDS011;2798;42.716;23.256;2023-05-29T06:22:59;15.67;;;6.63;;
5549;SDS011;2798;42.716;23.256;2023-05-29T06:25:24;14.87;;;7.47;;
5549;SDS011;2798;42.716;23.256;2023-05-29T06:27:58;14.70;;;6.30;;
5549;SDS011;2798;42.716;23.256;2023-05-29T06:30:27;20.23;;;6.40;;
5549;SDS011;2798;42.716;23.256;2023-05-29T06:32:53;22.40;;;8.13;;
5549;SDS011;2798;42.716;23.256;2023-05-29T06:35:19;16.30;;;7.33;;
5549;SDS011;2798;42.716;23.256;2023-05-29T06:37:45;22.73;;;6.93;;
5549;SDS011;2798;42.716;23.256;2023-05-29T06:40:11;15.70;;;6.67;;
5549;SDS011;2798;42.716;23.256;2023-05-29T06:42:37;16.77;;;6.37;;
5549;SDS011;2798;42.716;23.256;2023-05-29T06:45:03;19.23;;;6.40;;
5549;SDS011;2798;42.716;23.256;2023-05-29T06:47:28;16.60;;;7.40;;
5549;SDS011;2798;42.716;23.256;2023-05-29T06:49:54;13.40;;;5.87;;
5549;SDS011;2798;42.716;23.256;2023-05-29T06:52:19;14.27;;;6.60;;
5549;SDS011;2798;42.716;23.256;2023-05-29T06:54:45;13.80;;;6.17;;
5549;SDS011;2798;42.716;23.256;2023-05-29T06:57:10;15.83;;;6.77;;
5549;SDS011;2798;42.716;23.256;2023-05-29T06:59:35;15.33;;;6.67;;
5549;SDS011;2798;42.716;23.256;2023-05-29T07:02:01;13.57;;;5.83;;
5549;SDS011;2798;42.716;23.256;2023-05-29T07:04:26;15.03;;;6.33;;
5549;SDS011;2798;42.716;23.256;2023-05-29T07:06:52;12.27;;;5.67;;
5549;SDS011;2798;42.716;23.256;2023-05-29T07:09:17;13.00;;;6.07;;
5549;SDS011;2798;42.716;23.256;2023-05-29T07:11:43;12.83;;;5.97;;
5549;SDS011;2798;42.716;23.256;2023-05-29T07:14:08;13.13;;;5.80;;
5549;SDS011;2798;42.716;23.256;2023-05-29T07:16:34;12.80;;;5.90;;
5549;SDS011;2798;42.716;23.256;2023-05-29T07:18:59;13.13;;;5.57;;
5549;SDS011;2798;42.716;23.256;2023-05-29T07:21:25;12.83;;;5.23;;
5549;SDS011;2798;42.716;23.256;2023-05-29T07:23:50;14.93;;;5.47;;
5549;SDS011;2798;42.716;23.256;2023-05-29T07:26:16;14.43;;;5.10;;
5549;SDS011;2798;42.716;23.256;2023-05-29T07:28:41;14.50;;;5.30;;
5549;SDS011;2798;42.716;23.256;2023-05-29T07:31:06;15.00;;;4.63;;
5549;SDS011;2798;42.716;23.256;2023-05-29T07:33:32;10.10;;;4.40;;
5549;SDS011;2798;42.716;23.256;2023-05-29T07:35:57;13.83;;;5.97;;
5549;SDS011;2798;42.716;23.256;2023-05-29T07:38:23;14.37;;;5.50;;
5549;SDS011;2798;42.716;23.256;2023-05-29T07:40:48;11.30;;;4.73;;
5549;SDS011;2798;42.716;23.256;2023-05-29T07:43:13;11.23;;;4.40;;
5549;SDS011;2798;42.716;23.256;2023-05-29T07:45:39;13.07;;;5.17;;
5549;SDS011;2798;42.716;23.256;2023-05-29T07:48:04;10.37;;;4.27;;
5549;SDS011;2798;42.716;23.256;2023-05-29T07:50:30;12.97;;;4.80;;
5549;SDS011;2798;42.716;23.256;2023-05-29T07:52:55;12.70;;;5.10;;
5549;SDS011;2798;42.716;23.256;2023-05-29T07:55:23;13.83;;;4.63;;
5549;SDS011;2798;42.716;23.256;2023-05-29T07:57:49;12.70;;;5.10;;
5549;SDS011;2798;42.716;23.256;2023-05-29T08:00:14;14.23;;;5.07;;
5549;SDS011;2798;42.716;23.256;2023-05-29T08:02:40;10.20;;;4.20;;
5549;SDS011;2798;42.716;23.256;2023-05-29T08:05:07;10.80;;;4.60;;
5549;SDS011;2798;42.716;23.256;2023-05-29T08:07:34;11.73;;;4.47;;
5549;SDS011;2798;42.716;23.256;2023-05-29T08:09:59;12.13;;;5.13;;
5549;SDS011;2798;42.716;23.256;2023-05-29T08:12:25;12.70;;;4.60;;
5549;SDS011;2798;42.716;23.256;2023-05-29T08:14:50;14.30;;;5.47;;
5549;SDS011;2798;42.716;23.256;2023-05-29T08:17:16;12.60;;;5.00;;
5549;SDS011;2798;42.716;23.256;2023-05-29T08:19:41;11.53;;;4.73;;
5549;SDS011;2798;42.716;23.256;2023-05-29T08:22:07;10.53;;;4.53;;
5549;SDS011;2798;42.716;23.256;2023-05-29T08:24:32;19.93;;;5.50;;
5549;SDS011;2798;42.716;23.256;2023-05-29T08:26:58;13.70;;;5.10;;
5549;SDS011;2798;42.716;23.256;2023-05-29T08:29:23;11.80;;;5.03;;
5549;SDS011;2798;42.716;23.256;2023-05-29T08:31:49;11.43;;;4.53;;
5549;SDS011;2798;42.716;23.256;2023-05-29T08:34:14;11.47;;;5.07;;
5549;SDS011;2798;42.716;23.256;2023-05-29T08:36:40;11.17;;;4.50;;
5549;SDS011;2798;42.716;23.256;2023-05-29T08:39:06;10.07;;;4.60;;
5549;SDS011;2798;42.716;23.256;2023-05-29T08:41:36;12.13;;;4.97;;
5549;SDS011;2798;42.716;23.256;2023-05-29T08:44:13;11.93;;;5.03;;
5549;SDS011;2798;42.716;23.256;2023-05-29T08:46:39;12.50;;;4.90;;
5549;SDS011;2798;42.716;23.256;2023-05-29T08:49:05;13.87;;;5.70;;
5549;SDS011;2798;42.716;23.256;2023-05-29T08:51:35;12.50;;;5.50;;
5549;SDS011;2798;42.716;23.256;2023-05-29T08:54:04;11.50;;;5.13;;
5549;SDS011;2798;42.716;23.256;2023-05-29T08:56:29;12.53;;;5.00;;
5549;SDS011;2798;42.716;23.256;2023-05-29T08:58:55;14.93;;;6.20;;
5549;SDS011;2798;42.716;23.256;2023-05-29T09:01:22;11.17;;;4.70;;
5549;SDS011;2798;42.716;23.256;2023-05-29T09:03:48;13.07;;;5.57;;
5549;SDS011;2798;42.716;23.256;2023-05-29T09:06:13;16.60;;;4.97;;
5549;SDS011;2798;42.716;23.256;2023-05-29T09:08:39;16.07;;;6.00;;
5549;SDS011;2798;42.716;23.256;2023-05-29T09:11:04;14.13;;;5.80;;
5549;SDS011;2798;42.716;23.256;2023-05-29T09:13:30;17.07;;;5.93;;
5549;SDS011;2798;42.716;23.256;2023-05-29T09:15:59;18.57;;;6.33;;
5549;SDS011;2798;42.716;23.256;2023-05-29T09:18:28;16.33;;;6.17;;
5549;SDS011;2798;42.716;23.256;2023-05-29T09:20:54;12.87;;;5.33;;
5549;SDS011;2798;42.716;23.256;2023-05-29T09:23:20;10.30;;;4.50;;
5549;SDS011;2798;42.716;23.256;2023-05-29T09:25:46;13.53;;;5.07;;
5549;SDS011;2798;42.716;23.256;2023-05-29T09:28:18;11.87;;;5.20;;
5549;SDS011;2798;42.716;23.256;2023-05-29T09:30:46;15.13;;;6.10;;
5549;SDS011;2798;42.716;23.256;2023-05-29T09:33:15;10.97;;;5.17;;
5549;SDS011;2798;42.716;23.256;2023-05-29T09:38:07;10.47;;;4.87;;
5549;SDS011;2798;42.716;23.256;2023-05-29T09:40:34;13.23;;;5.87;;
5549;SDS011;2798;42.716;23.256;2023-05-29T09:43:17;15.90;;;6.20;;
5549;SDS011;2798;42.716;23.256;2023-05-29T09:45:45;15.40;;;5.63;;
5549;SDS011;2798;42.716;23.256;2023-05-29T09:48:18;15.07;;;5.90;;
5549;SDS011;2798;42.716;23.256;2023-05-29T09:50:47;13.87;;;5.20;;
5549;SDS011;2798;42.716;23.256;2023-05-29T09:53:22;15.30;;;5.50;;
5549;SDS011;2798;42.716;23.256;2023-05-29T09:55:49;18.60;;;6.33;;
5549;SDS011;2798;42.716;23.256;2023-05-29T09:58:19;15.13;;;5.67;;
5549;SDS011;2798;42.716;23.256;2023-05-29T10:00:46;17.20;;;5.77;;
5549;SDS011;2798;42.716;23.256;2023-05-29T10:03:13;19.37;;;6.30;;
5549;SDS011;2798;42.716;23.256;2023-05-29T10:05:39;20.33;;;6.33;;
5549;SDS011;2798;42.716;23.256;2023-05-29T10:08:11;22.30;;;6.37;;
5549;SDS011;2798;42.716;23.256;2023-05-29T10:10:38;17.60;;;6.33;;
5549;SDS011;2798;42.716;23.256;2023-05-29T10:13:07;19.33;;;6.37;;
5549;SDS011;2798;42.716;23.256;2023-05-29T10:15:37;12.70;;;5.87;;
5549;SDS011;2798;42.716;23.256;2023-05-29T10:18:06;22.30;;;6.77;;
5549;SDS011;2798;42.716;23.256;2023-05-29T10:20:37;18.50;;;6.27;;
5549;SDS011;2798;42.716;23.256;2023-05-29T10:23:03;19.57;;;6.43;;
5549;SDS011;2798;42.716;23.256;2023-05-29T10:25:32;14.20;;;4.93;;
5549;SDS011;2798;42.716;23.256;2023-05-29T10:27:59;19.23;;;7.10;;
5549;SDS011;2798;42.716;23.256;2023-05-29T10:30:36;17.63;;;6.33;;
5549;SDS011;2798;42.716;23.256;2023-05-29T10:35:48;13.43;;;5.03;;
5549;SDS011;2798;42.716;23.256;2023-05-29T10:38:16;16.87;;;5.40;;
5549;SDS011;2798;42.716;23.256;2023-05-29T10:40:43;20.13;;;6.20;;
5549;SDS011;2798;42.716;23.256;2023-05-29T10:43:29;22.70;;;6.80;;
5549;SDS011;2798;42.716;23.256;2023-05-29T10:45:59;17.67;;;6.10;;
5549;SDS011;2798;42.716;23.256;2023-05-29T10:50:54;20.20;;;6.77;;
5549;SDS011;2798;42.716;23.256;2023-05-29T10:53:24;18.47;;;6.07;;
5549;SDS011;2798;42.716;23.256;2023-05-29T10:55:56;22.73;;;6.97;;
5549;SDS011;2798;42.716;23.256;2023-05-29T10:58:26;22.93;;;6.80;;
5549;SDS011;2798;42.716;23.256;2023-05-29T11:00:53;19.30;;;6.07;;
5549;SDS011;2798;42.716;23.256;2023-05-29T11:03:21;18.57;;;6.00;;
5549;SDS011;2798;42.716;23.256;2023-05-29T11:05:57;22.03;;;6.60;;
5549;SDS011;2798;42.716;23.256;2023-05-29T11:08:32;21.90;;;6.47;;
5549;SDS011;2798;42.716;23.256;2023-05-29T11:11:07;21.27;;;6.57;;
5549;SDS011;2798;42.716;23.256;2023-05-29T11:13:37;19.73;;;6.60;;
5549;SDS011;2798;42.716;23.256;2023-05-29T11:18:50;19.90;;;6.10;;
5549;SDS011;2798;42.716;23.256;2023-05-29T11:24:21;16.33;;;4.77;;
5549;SDS011;2798;42.716;23.256;2023-05-29T11:26:49;18.07;;;6.20;;
5549;SDS011;2798;42.716;23.256;2023-05-29T11:29:17;20.97;;;6.60;;
5549;SDS011;2798;42.716;23.256;2023-05-29T11:31:47;17.30;;;6.10;;
5549;SDS011;2798;42.716;23.256;2023-05-29T11:34:14;19.17;;;6.17;;
5549;SDS011;2798;42.716;23.256;2023-05-29T11:36:40;15.97;;;5.90;;
5549;SDS011;2798;42.716;23.256;2023-05-29T11:39:08;19.13;;;6.10;;
5549;SDS011;2798;42.716;23.256;2023-05-29T11:41:34;18.30;;;6.10;;
5549;SDS011;2798;42.716;23.256;2023-05-29T11:44:01;18.30;;;5.70;;
5549;SDS011;2798;42.716;23.256;2023-05-29T11:46:28;16.10;;;5.53;;
5549;SDS011;2798;42.716;23.256;2023-05-29T11:48:58;20.60;;;6.33;;
5549;SDS011;2798;42.716;23.256;2023-05-29T11:51:24;17.93;;;6.47;;
5549;SDS011;2798;42.716;23.256;2023-05-29T11:53:49;17.87;;;6.33;;
5549;SDS011;2798;42.716;23.256;2023-05-29T11:56:18;19.97;;;6.87;;
5549;SDS011;2798;42.716;23.256;2023-05-29T11:58:43;19.30;;;6.30;;
5549;SDS011;2798;42.716;23.256;2023-05-29T12:01:09;21.23;;;6.73;;
5549;SDS011;2798;42.716;23.256;2023-05-29T12:03:39;15.60;;;5.50;;
5549;SDS011;2798;42.716;23.256;2023-05-29T12:06:05;22.50;;;7.20;;
5549;SDS011;2798;42.716;23.256;2023-05-29T12:08:31;17.93;;;6.17;;
5549;SDS011;2798;42.716;23.256;2023-05-29T12:10:57;23.80;;;6.97;;
5549;SDS011;2798;42.716;23.256;2023-05-29T12:13:22;19.90;;;6.27;;
5549;SDS011;2798;42.716;23.256;2023-05-29T12:15:51;24.50;;;7.53;;
5549;SDS011;2798;42.716;23.256;2023-05-29T12:18:19;19.50;;;6.20;;
5549;SDS011;2798;42.716;23.256;2023-05-29T12:20:45;17.90;;;6.30;;
5549;SDS011;2798;42.716;23.256;2023-05-29T12:23:10;21.13;;;6.27;;
5549;SDS011;2798;42.716;23.256;2023-05-29T12:25:39;24.07;;;6.00;;
5549;SDS011;2798;42.716;23.256;2023-05-29T12:28:05;22.93;;;7.13;;
5549;SDS011;2798;42.716;23.256;2023-05-29T12:30:30;22.07;;;6.83;;
5549;SDS011;2798;42.716;23.256;2023-05-29T12:33:01;20.50;;;6.17;;
5549;SDS011;2798;42.716;23.256;2023-05-29T12:35:27;25.23;;;7.33;;
5549;SDS011;2798;42.716;23.256;2023-05-29T12:37:58;17.70;;;6.10;;
5549;SDS011;2798;42.716;23.256;2023-05-29T12:40:30;21.43;;;6.63;;
5549;SDS011;2798;42.716;23.256;2023-05-29T12:43:00;20.30;;;5.37;;
5549;SDS011;2798;42.716;23.256;2023-05-29T12:45:28;23.93;;;7.30;;
5549;SDS011;2798;42.716;23.256;2023-05-29T12:48:07;18.97;;;6.20;;
5549;SDS011;2798;42.716;23.256;2023-05-29T12:50:35;19.80;;;6.10;;
5549;SDS011;2798;42.716;23.256;2023-05-29T12:53:03;14.70;;;5.07;;
5549;SDS011;2798;42.716;23.256;2023-05-29T12:55:37;16.40;;;4.80;;
5549;SDS011;2798;42.716;23.256;2023-05-29T12:58:04;16.20;;;5.17;;
5549;SDS011;2798;42.716;23.256;2023-05-29T13:00:30;23.50;;;6.07;;
5549;SDS011;2798;42.716;23.256;2023-05-29T13:02:56;17.93;;;5.33;;
5549;SDS011;2798;42.716;23.256;2023-05-29T13:05:22;18.73;;;5.50;;
5549;SDS011;2798;42.716;23.256;2023-05-29T13:07:51;21.83;;;5.93;;
5549;SDS011;2798;42.716;23.256;2023-05-29T13:10:20;22.53;;;6.50;;
5549;SDS011;2798;42.716;23.256;2023-05-29T13:12:46;19.23;;;5.93;;
5549;SDS011;2798;42.716;23.256;2023-05-29T13:15:13;18.80;;;5.63;;
5549;SDS011;2798;42.716;23.256;2023-05-29T13:17:39;23.17;;;7.30;;
5549;SDS011;2798;42.716;23.256;2023-05-29T13:20:14;18.50;;;6.10;;
5549;SDS011;2798;42.716;23.256;2023-05-29T13:22:41;25.13;;;6.47;;
5549;SDS011;2798;42.716;23.256;2023-05-29T13:25:09;18.20;;;5.60;;
5549;SDS011;2798;42.716;23.256;2023-05-29T13:27:39;19.60;;;5.93;;
5549;SDS011;2798;42.716;23.256;2023-05-29T13:30:07;13.70;;;4.80;;
5549;SDS011;2798;42.716;23.256;2023-05-29T13:32:34;18.87;;;6.47;;
5549;SDS011;2798;42.716;23.256;2023-05-29T13:35:00;23.93;;;6.40;;
5549;SDS011;2798;42.716;23.256;2023-05-29T13:37:26;20.70;;;6.10;;
5549;SDS011;2798;42.716;23.256;2023-05-29T13:39:52;19.93;;;6.13;;
5549;SDS011;2798;42.716;23.256;2023-05-29T13:42:18;18.20;;;5.37;;
5549;SDS011;2798;42.716;23.256;2023-05-29T13:44:45;17.63;;;5.13;;
5549;SDS011;2798;42.716;23.256;2023-05-29T13:47:11;14.20;;;4.30;;
5549;SDS011;2798;42.716;23.256;2023-05-29T13:49:36;16.60;;;4.70;;
5549;SDS011;2798;42.716;23.256;2023-05-29T13:52:02;20.17;;;5.40;;
5549;SDS011;2798;42.716;23.256;2023-05-29T13:54:28;17.90;;;5.03;;
5549;SDS011;2798;42.716;23.256;2023-05-29T13:56:58;22.93;;;4.93;;
5549;SDS011;2798;42.716;23.256;2023-05-29T13:59:24;21.73;;;5.17;;
5549;SDS011;2798;42.716;23.256;2023-05-29T14:01:49;19.30;;;5.10;;
5549;SDS011;2798;42.716;23.256;2023-05-29T14:04:15;12.57;;;3.83;;
5549;SDS011;2798;42.716;23.256;2023-05-29T14:06:41;21.27;;;5.13;;
5549;SDS011;2798;42.716;23.256;2023-05-29T14:09:06;15.87;;;4.73;;
5549;SDS011;2798;42.716;23.256;2023-05-29T14:11:35;13.50;;;4.40;;
5549;SDS011;2798;42.716;23.256;2023-05-29T14:14:03;15.77;;;4.40;;
5549;SDS011;2798;42.716;23.256;2023-05-29T14:16:29;12.53;;;4.10;;
5549;SDS011;2798;42.716;23.256;2023-05-29T14:18:55;12.50;;;3.93;;
5549;SDS011;2798;42.716;23.256;2023-05-29T14:21:20;15.60;;;4.27;;
5549;SDS011;2798;42.716;23.256;2023-05-29T14:23:46;14.90;;;4.80;;
5549;SDS011;2798;42.716;23.256;2023-05-29T14:26:12;20.83;;;5.60;;
5549;SDS011;2798;42.716;23.256;2023-05-29T14:28:38;18.97;;;6.40;;
5549;SDS011;2798;42.716;23.256;2023-05-29T14:31:04;19.67;;;5.80;;
5549;SDS011;2798;42.716;23.256;2023-05-29T14:33:30;21.10;;;5.47;;
5549;SDS011;2798;42.716;23.256;2023-05-29T14:35:56;18.47;;;5.23;;
5549;SDS011;2798;42.716;23.256;2023-05-29T14:38:21;23.63;;;6.03;;
5549;SDS011;2798;42.716;23.256;2023-05-29T14:40:47;14.00;;;4.50;;
5549;SDS011;2798;42.716;23.256;2023-05-29T14:43:13;13.90;;;4.60;;
5549;SDS011;2798;42.716;23.256;2023-05-29T14:45:38;15.90;;;4.97;;
5549;SDS011;2798;42.716;23.256;2023-05-29T14:48:03;18.30;;;5.70;;
5549;SDS011;2798;42.716;23.256;2023-05-29T14:50:29;22.73;;;5.60;;
5549;SDS011;2798;42.716;23.256;2023-05-29T14:52:55;16.83;;;4.50;;
5549;SDS011;2798;42.716;23.256;2023-05-29T14:55:20;18.60;;;5.30;;
5549;SDS011;2798;42.716;23.256;2023-05-29T14:57:46;14.47;;;4.43;;
5549;SDS011;2798;42.716;23.256;2023-05-29T15:00:11;25.10;;;5.83;;
5549;SDS011;2798;42.716;23.256;2023-05-29T15:02:37;18.83;;;5.53;;
5549;SDS011;2798;42.716;23.256;2023-05-29T15:05:04;13.27;;;4.63;;
5549;SDS011;2798;42.716;23.256;2023-05-29T15:07:31;14.37;;;4.90;;
5549;SDS011;2798;42.716;23.256;2023-05-29T15:10:00;16.73;;;5.03;;